createdAt,value
2022-08-10T00:02:33.743Z,18.80
2022-08-10T00:10:37.916Z,18.70
2022-08-10T00:13:26.258Z,18.70
2022-08-10T00:16:13.925Z,18.60
2022-08-10T00:19:01.320Z,18.60
2022-08-10T00:22:53.013Z,18.50
2022-08-10T00:26:11.362Z,18.50
2022-08-10T00:28:58.455Z,18.50
2022-08-10T00:31:58.037Z,18.40
2022-08-10T00:34:46.686Z,18.40
2022-08-10T00:37:34.205Z,18.40
2022-08-10T00:41:36.381Z,18.30
2022-08-10T00:44:24.739Z,18.20
2022-08-10T00:47:20.719Z,18.20
2022-08-10T00:50:21.205Z,18.20
2022-08-10T00:53:08.642Z,18.20
2022-08-10T00:56:35.140Z,18.20
2022-08-10T01:05:20.165Z,18.10
2022-08-10T01:08:17.251Z,18.10
2022-08-10T01:12:37.619Z,18.00
2022-08-10T01:14:45.696Z,17.80
2022-08-10T01:17:50.145Z,17.90
2022-08-10T01:20:46.040Z,17.80
2022-08-10T01:23:57.041Z,17.80
2022-08-10T01:26:58.121Z,17.70
2022-08-10T01:34:15.561Z,17.70
2022-08-10T01:37:12.169Z,17.50
2022-08-10T01:40:03.217Z,17.50
2022-08-10T01:42:52.466Z,17.40
2022-08-10T01:45:44.912Z,17.30
2022-08-10T01:53:56.546Z,17.20
2022-08-10T01:56:45.742Z,17.30
2022-08-10T02:09:48.175Z,17.20
2022-08-10T02:12:37.679Z,17.30
2022-08-10T02:15:29.458Z,17.30
2022-08-10T02:18:18.186Z,17.30
2022-08-10T02:21:07.379Z,17.30
2022-08-10T02:24:45.438Z,17.20
2022-08-10T02:27:34.950Z,17.20
2022-08-10T02:30:23.169Z,17.10
2022-08-10T02:33:11.594Z,17.00
2022-08-10T02:36:06.035Z,16.90
2022-08-10T02:38:58.711Z,16.90
2022-08-10T02:45:12.427Z,16.80
2022-08-10T02:45:29.797Z,16.90
2022-08-10T02:48:17.456Z,16.90
2022-08-10T02:51:11.263Z,16.90
2022-08-10T02:54:06.655Z,16.80
2022-08-10T02:56:58.002Z,16.50
2022-08-10T02:59:49.169Z,16.30
2022-08-10T03:02:39.860Z,16.10
2022-08-10T03:05:27.438Z,15.90
2022-08-10T03:12:41.758Z,16.00
2022-08-10T03:15:30.770Z,16.00
2022-08-10T03:18:20.987Z,15.90
2022-08-10T03:21:11.928Z,16.10
2022-08-10T03:28:54.166Z,15.70
2022-08-10T03:31:41.870Z,15.60
2022-08-10T03:34:32.703Z,15.60
2022-08-10T03:37:20.833Z,15.50
2022-08-10T03:40:09.591Z,15.50
2022-08-10T03:42:58.058Z,15.40
2022-08-10T03:45:54.377Z,15.30
2022-08-10T03:48:49.177Z,15.60
2022-08-10T03:51:39.235Z,15.70
2022-08-10T03:54:27.646Z,15.80
2022-08-10T03:57:15.246Z,15.90
2022-08-10T04:00:02.425Z,16.00
2022-08-10T04:07:56.691Z,15.80
2022-08-10T04:10:44.183Z,15.60
2022-08-10T04:13:31.466Z,15.90
2022-08-10T04:16:18.743Z,15.70
2022-08-10T04:24:29.950Z,15.80
2022-08-10T04:27:20.346Z,15.90
2022-08-10T04:30:08.611Z,16.00
2022-08-10T04:32:57.786Z,16.00
2022-08-10T04:40:58.624Z,16.40
2022-08-10T04:43:45.892Z,16.60
2022-08-10T04:46:56.456Z,16.70
2022-08-10T04:49:54.920Z,16.90
2022-08-10T04:52:44.347Z,16.90
2022-08-10T04:55:31.627Z,17.00
2022-08-10T04:58:20.334Z,17.10
2022-08-10T05:01:07.470Z,17.10
2022-08-10T05:04:35.982Z,17.10
2022-08-10T05:07:54.135Z,17.20
2022-08-10T05:10:44.027Z,17.20
2022-08-10T05:13:32.925Z,17.30
2022-08-10T05:16:20.603Z,17.40
2022-08-10T05:20:01.377Z,17.60
2022-08-10T05:22:26.517Z,17.60
2022-08-10T05:25:15.070Z,17.70
2022-08-10T05:28:06.259Z,17.70
2022-08-10T05:30:55.067Z,17.80
2022-08-10T05:33:42.283Z,17.80
2022-08-10T05:36:29.717Z,18.00
2022-08-10T05:43:53.687Z,18.20
2022-08-10T05:46:42.427Z,18.20
2022-08-10T05:49:30.062Z,18.30
2022-08-10T05:52:18.321Z,18.40
2022-08-10T06:00:37.119Z,18.30
2022-08-10T06:03:34.598Z,18.80
2022-08-10T06:06:24.898Z,19.10
2022-08-10T06:09:13.401Z,19.50
2022-08-10T06:16:34.873Z,19.70
2022-08-10T06:19:25.207Z,19.90
2022-08-10T06:22:13.579Z,20.10
2022-08-10T06:32:36.843Z,21.60
2022-08-10T06:35:28.350Z,21.60
2022-08-10T06:38:17.708Z,22.50
2022-08-10T06:41:09.825Z,22.70
2022-08-10T06:44:01.070Z,23.20
2022-08-10T06:46:52.066Z,22.80
2022-08-10T06:49:40.159Z,22.80
2022-08-10T06:52:30.106Z,22.30
2022-08-10T06:55:18.639Z,22.10
2022-08-10T06:58:07.577Z,22.20
2022-08-10T07:01:02.952Z,23.00
2022-08-10T07:03:57.523Z,22.50
2022-08-10T07:06:47.498Z,23.00
2022-08-10T07:09:38.714Z,22.80
2022-08-10T07:12:26.998Z,22.60
2022-08-10T07:15:17.266Z,22.40
2022-08-10T07:23:57.307Z,22.40
2022-08-10T07:26:34.893Z,23.60
2022-08-10T07:29:54.148Z,23.90
2022-08-10T07:37:55.070Z,24.10
2022-08-10T07:40:44.301Z,24.00
2022-08-10T07:48:55.710Z,24.20
2022-08-10T07:51:43.892Z,23.50
2022-08-10T07:54:33.147Z,23.80
2022-08-10T07:57:30.894Z,23.50
2022-08-10T08:00:20.644Z,23.60
2022-08-10T08:03:09.351Z,24.00
2022-08-10T08:06:05.430Z,24.30
2022-08-10T08:09:00.554Z,23.90
2022-08-10T08:11:49.523Z,23.90
2022-08-10T08:14:39.937Z,23.70
2022-08-10T08:17:36.425Z,23.60
2022-08-10T08:20:25.562Z,23.70
2022-08-10T08:24:04.875Z,24.30
2022-08-10T08:26:24.143Z,24.70
2022-08-10T08:29:17.833Z,25.50
2022-08-10T08:32:06.385Z,25.60
2022-08-10T08:34:57.528Z,26.10
2022-08-10T08:38:28.853Z,25.70
2022-08-10T08:41:04.774Z,25.70
2022-08-10T08:44:05.309Z,25.20
2022-08-10T08:48:03.300Z,25.50
2022-08-10T08:50:32.320Z,26.00
2022-08-10T08:54:02.635Z,26.40
2022-08-10T08:56:50.279Z,26.40
2022-08-10T08:59:54.338Z,26.60
2022-08-10T09:02:55.753Z,26.50
2022-08-10T09:05:59.388Z,25.70
2022-08-10T09:09:25.475Z,25.70
2022-08-10T09:16:52.627Z,26.10
2022-08-10T09:19:47.535Z,26.30
2022-08-10T09:22:41.831Z,26.90
2022-08-10T09:25:35.755Z,26.80
2022-08-10T09:28:27.157Z,26.30
2022-08-10T09:31:22.581Z,26.10
2022-08-10T09:36:21.775Z,26.40
2022-08-10T09:37:58.680Z,26.30
2022-08-10T09:41:00.191Z,26.80
2022-08-10T09:43:57.566Z,27.40
2022-08-10T09:46:58.747Z,26.90
2022-08-10T09:50:06.331Z,27.40
2022-08-10T09:53:05.223Z,27.70
2022-08-10T09:56:17.717Z,28.10
2022-08-10T10:04:30.803Z,27.10
2022-08-10T10:07:27.043Z,28.10
2022-08-10T10:10:20.587Z,27.50
2022-08-10T10:13:13.313Z,27.70
2022-08-10T10:16:09.808Z,27.40
2022-08-10T10:19:08.813Z,27.30
2022-08-10T10:22:08.933Z,27.70
2022-08-10T10:25:20.807Z,28.00
2022-08-10T10:28:19.970Z,28.40
2022-08-10T10:31:16.909Z,28.70
2022-08-10T10:34:13.207Z,28.30
2022-08-10T10:37:02.309Z,27.80
2022-08-10T10:39:54.600Z,27.70
2022-08-10T10:42:50.882Z,27.40
2022-08-10T10:45:51.730Z,26.80
2022-08-10T10:48:48.783Z,27.40
2022-08-10T10:51:45.811Z,27.50
2022-08-10T10:54:42.471Z,27.30
2022-08-10T10:58:00.046Z,27.70
2022-08-10T11:00:56.690Z,28.10
2022-08-10T11:03:59.014Z,27.10
2022-08-10T11:06:58.077Z,27.80
2022-08-10T11:10:03.511Z,28.40
2022-08-10T11:13:03.004Z,28.00
2022-08-10T11:16:17.957Z,27.40
2022-08-10T11:19:11.767Z,28.20
2022-08-10T11:22:14.596Z,28.10
2022-08-10T11:25:09.221Z,27.50
2022-08-10T11:28:04.396Z,27.50
2022-08-10T11:36:17.651Z,28.10
2022-08-10T11:39:14.258Z,27.70
2022-08-10T11:42:17.358Z,27.40
2022-08-10T11:45:52.001Z,27.20
2022-08-10T11:48:53.101Z,27.00
2022-08-10T11:51:49.802Z,27.10
2022-08-10T11:54:43.143Z,27.10
2022-08-10T11:57:54.587Z,27.30
2022-08-10T12:00:41.107Z,27.00
2022-08-10T12:10:05.134Z,26.80
2022-08-10T12:11:57.811Z,27.40
2022-08-10T12:14:51.220Z,27.10
2022-08-10T12:17:50.721Z,27.50
2022-08-10T12:20:42.473Z,27.90
2022-08-10T12:23:41.215Z,27.40
2022-08-10T12:26:35.806Z,27.60
2022-08-10T12:29:28.450Z,27.70
2022-08-10T12:32:25.589Z,27.80
2022-08-10T12:35:22.635Z,27.70
2022-08-10T12:38:21.343Z,27.80
2022-08-10T12:41:18.460Z,27.80
2022-08-10T12:49:27.313Z,27.50
2022-08-10T12:52:20.423Z,27.10
2022-08-10T13:00:02.359Z,27.40
2022-08-10T13:02:50.780Z,27.30
2022-08-10T13:06:01.874Z,27.40
2022-08-10T13:09:06.355Z,27.70
2022-08-10T13:12:37.097Z,27.90
2022-08-10T13:15:45.170Z,28.00
2022-08-10T13:18:28.870Z,27.80
2022-08-10T13:21:20.093Z,27.40
2022-08-10T13:24:12.880Z,27.10
2022-08-10T13:27:25.122Z,27.10
2022-08-10T13:30:14.095Z,27.40
2022-08-10T13:38:23.177Z,27.80
2022-08-10T13:41:11.901Z,28.00
2022-08-10T13:44:01.213Z,28.00
2022-08-10T13:46:53.607Z,27.80
2022-08-10T13:49:47.931Z,28.00
2022-08-10T13:52:36.653Z,28.00
2022-08-10T13:55:29.034Z,27.90
2022-08-10T13:58:39.322Z,27.80
2022-08-10T14:01:31.565Z,27.30
2022-08-10T14:08:50.295Z,27.30
2022-08-10T14:11:41.138Z,27.60
2022-08-10T14:14:30.108Z,27.80
2022-08-10T14:17:22.004Z,27.80
2022-08-10T14:20:14.820Z,27.80
2022-08-10T14:23:05.163Z,27.80
2022-08-10T14:25:56.408Z,27.70
2022-08-10T14:28:48.773Z,27.70
2022-08-10T14:36:55.573Z,27.40
2022-08-10T14:39:46.182Z,27.60
2022-08-10T14:42:38.502Z,27.60
2022-08-10T14:45:30.055Z,27.60
2022-08-10T14:48:23.083Z,27.60
2022-08-10T14:56:33.802Z,27.80
2022-08-10T15:00:20.780Z,28.00
2022-08-10T15:02:53.165Z,28.00
2022-08-10T15:05:46.270Z,27.90
2022-08-10T15:14:29.231Z,28.00
2022-08-10T15:17:11.876Z,28.00
2022-08-10T15:20:14.304Z,28.00
2022-08-10T15:24:27.246Z,27.80
2022-08-10T15:27:19.416Z,27.80
2022-08-10T15:30:09.447Z,27.80
2022-08-10T15:33:15.001Z,27.80
2022-08-10T15:36:34.033Z,27.80
2022-08-10T15:44:39.922Z,27.70
2022-08-10T15:48:17.883Z,27.70
2022-08-10T15:56:33.250Z,27.80
2022-08-10T15:59:30.775Z,27.60
2022-08-10T16:02:25.049Z,27.70
2022-08-10T16:05:17.235Z,27.70
2022-08-10T16:08:08.213Z,27.70
2022-08-10T16:11:02.888Z,27.70
2022-08-10T16:19:22.538Z,27.80
2022-08-10T16:22:36.036Z,27.70
2022-08-10T16:25:21.134Z,27.70
2022-08-10T16:28:10.818Z,27.70
2022-08-10T16:36:07.591Z,27.70
2022-08-10T16:38:55.666Z,27.60
2022-08-10T16:42:04.183Z,27.70
2022-08-10T16:44:54.289Z,27.40
2022-08-10T16:47:48.312Z,27.40
2022-08-10T16:50:41.469Z,27.40
2022-08-10T16:53:32.801Z,27.40
2022-08-10T16:56:28.529Z,27.30
2022-08-10T16:59:20.786Z,27.40
2022-08-10T17:02:16.943Z,27.40
2022-08-10T17:09:59.015Z,27.20
2022-08-10T17:12:51.870Z,27.20
2022-08-10T17:15:42.240Z,27.20
2022-08-10T17:18:30.958Z,27.10
2022-08-10T17:21:21.607Z,27.10
2022-08-10T17:24:36.027Z,27.10
2022-08-10T17:28:13.966Z,27.10
2022-08-10T17:30:57.260Z,27.10
2022-08-10T17:33:45.545Z,27.10
2022-08-10T17:36:36.491Z,27.00
2022-08-10T17:39:29.712Z,26.90
2022-08-10T17:42:22.264Z,26.90
2022-08-10T17:45:20.786Z,26.80
2022-08-10T17:48:30.433Z,26.70
2022-08-10T17:51:18.778Z,26.80
2022-08-10T17:54:10.032Z,26.70
2022-08-10T17:58:00.740Z,26.60
2022-08-10T18:00:54.356Z,26.60
2022-08-10T18:03:44.196Z,26.50
2022-08-10T18:06:33.467Z,26.40
2022-08-10T18:09:28.663Z,26.30
2022-08-10T18:12:20.814Z,26.20
2022-08-10T18:15:39.228Z,25.90
2022-08-10T18:18:29.543Z,25.80
2022-08-10T18:21:20.919Z,25.60
2022-08-10T18:24:16.356Z,25.30
2022-08-10T18:27:05.855Z,24.80
2022-08-10T18:29:55.168Z,24.60
2022-08-10T18:32:48.922Z,24.60
2022-08-10T18:35:39.767Z,24.40
2022-08-10T18:38:28.658Z,24.20
2022-08-10T18:41:19.701Z,24.20
2022-08-10T18:45:22.886Z,24.20
2022-08-10T18:48:15.988Z,24.10
2022-08-10T18:51:06.915Z,23.90
2022-08-10T18:53:59.611Z,23.90
2022-08-10T18:56:54.925Z,23.70
2022-08-10T19:05:04.503Z,23.20
2022-08-10T19:08:31.296Z,22.90
2022-08-10T19:11:34.806Z,22.90
2022-08-10T19:14:33.997Z,23.10
2022-08-10T19:18:38.833Z,23.00
2022-08-10T19:21:33.016Z,22.70
2022-08-10T19:24:27.255Z,22.50
2022-08-10T19:27:30.722Z,22.40
2022-08-10T19:30:20.105Z,22.20
2022-08-10T19:33:20.679Z,22.00
2022-08-10T19:41:32.352Z,22.10
2022-08-10T19:44:43.488Z,22.20
2022-08-10T19:47:36.661Z,22.00
2022-08-10T19:50:30.068Z,22.10
2022-08-10T19:53:27.467Z,22.10
2022-08-10T19:56:35.042Z,22.40
2022-08-10T20:00:15.246Z,22.70
2022-08-10T20:03:00.622Z,22.90
2022-08-10T20:06:14.499Z,23.00
2022-08-10T20:09:12.908Z,23.00
2022-08-10T20:16:35.121Z,23.10
2022-08-10T20:19:53.044Z,23.20
2022-08-10T20:22:46.546Z,23.20
2022-08-10T20:25:34.691Z,23.20
2022-08-10T20:33:39.380Z,23.10
2022-08-10T20:36:31.732Z,23.20
2022-08-10T20:39:28.612Z,23.20
2022-08-10T20:42:21.873Z,23.10
2022-08-10T20:45:21.044Z,23.10
2022-08-10T20:48:19.739Z,23.00
2022-08-10T20:51:12.734Z,23.00
2022-08-10T20:54:05.590Z,23.00
2022-08-10T20:57:56.338Z,22.90
2022-08-10T21:00:23.947Z,22.80
2022-08-10T21:08:35.068Z,22.70
2022-08-10T21:11:35.642Z,22.60
2022-08-10T21:14:36.183Z,22.50
2022-08-10T21:17:41.901Z,22.50
2022-08-10T21:23:58.497Z,22.40
2022-08-10T21:26:59.190Z,22.40
2022-08-10T21:30:00.261Z,22.30
2022-08-10T21:32:56.616Z,22.20
2022-08-10T21:35:48.576Z,22.20
2022-08-10T21:38:47.274Z,22.10
2022-08-10T21:42:02.171Z,22.10
2022-08-10T21:45:16.985Z,22.10
2022-08-10T21:48:32.983Z,22.00
2022-08-10T21:56:11.536Z,21.90
2022-08-10T21:59:23.767Z,21.80
2022-08-10T22:02:32.061Z,21.80
2022-08-10T22:05:42.664Z,21.60
2022-08-10T22:13:35.777Z,21.50
2022-08-10T22:16:51.292Z,21.50
2022-08-10T22:20:01.050Z,21.40
2022-08-10T22:23:20.479Z,21.40
2022-08-10T22:31:24.559Z,22.40
2022-08-10T22:31:47.762Z,21.30
2022-08-10T22:35:21.659Z,21.20
2022-08-10T22:38:38.623Z,21.20
2022-08-10T22:41:51.062Z,21.20
2022-08-10T22:45:52.722Z,21.20
2022-08-10T22:49:02.147Z,21.00
2022-08-10T22:51:54.386Z,20.90
2022-08-10T22:55:06.700Z,20.80
2022-08-10T22:58:11.469Z,20.90
2022-08-10T23:01:02.646Z,20.90
2022-08-10T23:03:53.163Z,20.80
2022-08-10T23:06:41.398Z,20.60
2022-08-10T23:09:30.210Z,20.60
2022-08-10T23:12:23.390Z,20.60
2022-08-10T23:15:38.694Z,20.60
2022-08-10T23:23:47.793Z,20.50
2022-08-10T23:26:36.291Z,20.50
2022-08-10T23:29:24.885Z,20.40
2022-08-10T23:33:37.398Z,20.50
2022-08-10T23:36:51.630Z,20.40
2022-08-10T23:39:44.545Z,20.20
2022-08-10T23:42:38.613Z,20.20
2022-08-10T23:45:28.781Z,20.30
2022-08-10T23:48:38.832Z,20.30
2022-08-10T23:57:00.700Z,20.10
